sensor_id;sensor_type;location;lat;lon;timestamp;pressure;altitude;pressure_sealevel;temperature;humidity
76815;BME280;65768;49.906;19.384;2023-05-10T00:03:32;98512.88;;;4.50;78.40
76815;BME280;65768;49.906;19.384;2023-05-10T00:20:01;98507.88;;;4.38;79.44
76815;BME280;65768;49.906;19.384;2023-05-10T00:54:04;98498.98;;;4.01;83.27
76815;BME280;65768;49.906;19.384;2023-05-10T01:13:45;98483.09;;;4.17;81.81
76815;BME280;65768;49.906;19.384;2023-05-10T01:31:06;98472.59;;;3.95;82.58
76815;BME280;65768;49.906;19.384;2023-05-10T01:45:23;98470.81;;;3.55;84.66
76815;BME280;65768;49.906;19.384;2023-05-10T02:32:01;98448.80;;;3.09;88.87
76815;BME280;65768;49.906;19.384;2023-05-10T03:09:14;98446.69;;;2.72;91.59
76815;BME280;65768;49.906;19.384;2023-05-10T03:26:03;98452.71;;;2.72;92.50
76815;BME280;65768;49.906;19.384;2023-05-10T03:39:16;98449.16;;;2.83;92.21
76815;BME280;65768;49.906;19.384;2023-05-10T03:52:31;98445.17;;;3.08;91.95
76815;BME280;65768;49.906;19.384;2023-05-10T03:55:36;98440.77;;;3.16;91.58
76815;BME280;65768;49.906;19.384;2023-05-10T04:15:03;98436.34;;;3.77;90.53
76815;BME280;65768;49.906;19.384;2023-05-10T04:31:26;98442.85;;;4.33;87.46
76815;BME280;65768;49.906;19.384;2023-05-10T04:45:03;98437.44;;;5.08;86.42
76815;BME280;65768;49.906;19.384;2023-05-10T04:51:45;98438.93;;;5.40;86.47
76815;BME280;65768;49.906;19.384;2023-05-10T04:58:01;98438.06;;;5.54;85.62
76815;BME280;65768;49.906;19.384;2023-05-10T05:01:20;98433.56;;;5.62;86.02
76815;BME280;65768;49.906;19.384;2023-05-10T05:04:39;98432.94;;;5.72;86.02
76815;BME280;65768;49.906;19.384;2023-05-10T05:08:09;98430.50;;;5.94;85.69
76815;BME280;65768;49.906;19.384;2023-05-10T05:14:53;98421.52;;;6.52;82.86
76815;BME280;65768;49.906;19.384;2023-05-10T05:21:02;98413.75;;;7.20;79.41
76815;BME280;65768;49.906;19.384;2023-05-10T05:27:04;98403.48;;;7.85;78.25
76815;BME280;65768;49.906;19.384;2023-05-10T05:32:58;98402.70;;;8.44;75.04
76815;BME280;65768;49.906;19.384;2023-05-10T05:36:02;98404.46;;;8.76;74.97
76815;BME280;65768;49.906;19.384;2023-05-10T05:38:39;98405.09;;;9.03;73.89
76815;BME280;65768;49.906;19.384;2023-05-10T05:44:35;98395.63;;;9.59;72.95
76815;BME280;65768;49.906;19.384;2023-05-10T05:47:38;98394.27;;;9.89;71.99
76815;BME280;65768;49.906;19.384;2023-05-10T05:50:48;98394.91;;;10.13;71.01
76815;BME280;65768;49.906;19.384;2023-05-10T05:53:30;98392.61;;;10.36;70.76
76815;BME280;65768;49.906;19.384;2023-05-10T05:56:04;98389.89;;;10.59;69.63
76815;BME280;65768;49.906;19.384;2023-05-10T05:58:40;98392.39;;;10.75;68.76
76815;BME280;65768;49.906;19.384;2023-05-10T06:01:31;98393.46;;;10.91;67.47
76815;BME280;65768;49.906;19.384;2023-05-10T06:04:07;98394.19;;;11.10;67.27
76815;BME280;65768;49.906;19.384;2023-05-10T06:09:27;98387.58;;;11.41;65.75
76815;BME280;65768;49.906;19.384;2023-05-10T06:12:08;98384.75;;;11.65;65.00
76815;BME280;65768;49.906;19.384;2023-05-10T06:14:50;98387.89;;;11.80;63.16
76815;BME280;65768;49.906;19.384;2023-05-10T06:17:21;98386.65;;;12.01;63.55
76815;BME280;65768;49.906;19.384;2023-05-10T06:19:57;98391.11;;;12.27;64.29
76815;BME280;65768;49.906;19.384;2023-05-10T06:22:36;98382.41;;;12.57;62.43
76815;BME280;65768;49.906;19.384;2023-05-10T06:25:11;98385.94;;;12.83;63.09
76815;BME280;65768;49.906;19.384;2023-05-10T06:27:49;98377.95;;;13.01;60.81
76815;BME280;65768;49.906;19.384;2023-05-10T06:30:31;98375.35;;;13.26;61.02
76815;BME280;65768;49.906;19.384;2023-05-10T06:32:59;98380.64;;;13.45;59.17
76815;BME280;65768;49.906;19.384;2023-05-10T06:35:40;98376.64;;;13.60;58.55
76815;BME280;65768;49.906;19.384;2023-05-10T06:38:14;98375.75;;;13.81;57.67
76815;BME280;65768;49.906;19.384;2023-05-10T06:40:46;98377.33;;;13.97;57.62
76815;BME280;65768;49.906;19.384;2023-05-10T06:43:30;98372.80;;;14.26;56.77
76815;BME280;65768;49.906;19.384;2023-05-10T06:45:58;98374.61;;;14.35;54.12
76815;BME280;65768;49.906;19.384;2023-05-10T06:48:27;98363.45;;;14.44;53.84
76815;BME280;65768;49.906;19.384;2023-05-10T06:50:58;98367.29;;;14.61;53.16
76815;BME280;65768;49.906;19.384;2023-05-10T06:53:29;98365.23;;;14.71;52.72
76815;BME280;65768;49.906;19.384;2023-05-10T06:56:00;98364.12;;;14.88;52.57
76815;BME280;65768;49.906;19.384;2023-05-10T06:58:32;98363.60;;;15.00;52.21
76815;BME280;65768;49.906;19.384;2023-05-10T07:01:04;98364.67;;;15.10;52.05
76815;BME280;65768;49.906;19.384;2023-05-10T07:03:36;98366.56;;;15.23;50.56
76815;BME280;65768;49.906;19.384;2023-05-10T07:06:04;98368.15;;;15.34;51.19
76815;BME280;65768;49.906;19.384;2023-05-10T07:08:34;98363.04;;;15.45;49.96
76815;BME280;65768;49.906;19.384;2023-05-10T07:11:04;98360.09;;;15.65;50.38
76815;BME280;65768;49.906;19.384;2023-05-10T07:13:34;98359.96;;;15.73;48.98
76815;BME280;65768;49.906;19.384;2023-05-10T07:16:04;98361.45;;;15.87;50.08
76815;BME280;65768;49.906;19.384;2023-05-10T07:18:34;98360.64;;;16.02;49.32
76815;BME280;65768;49.906;19.384;2023-05-10T07:21:02;98364.80;;;16.14;49.17
76815;BME280;65768;49.906;19.384;2023-05-10T07:23:30;98362.92;;;16.21;48.00
76815;BME280;65768;49.906;19.384;2023-05-10T07:25:59;98363.68;;;16.35;48.59
76815;BME280;65768;49.906;19.384;2023-05-10T07:28:28;98363.92;;;16.40;48.19
76815;BME280;65768;49.906;19.384;2023-05-10T07:30:56;98359.12;;;16.52;47.19
76815;BME280;65768;49.906;19.384;2023-05-10T07:33:27;98360.39;;;16.58;47.62
76815;BME280;65768;49.906;19.384;2023-05-10T07:35:55;98359.87;;;16.66;47.64
76815;BME280;65768;49.906;19.384;2023-05-10T07:38:24;98360.34;;;16.69;46.66
76815;BME280;65768;49.906;19.384;2023-05-10T07:40:52;98358.22;;;16.61;47.11
76815;BME280;65768;49.906;19.384;2023-05-10T07:43:20;98360.67;;;16.79;48.20
76815;BME280;65768;49.906;19.384;2023-05-10T07:45:48;98353.08;;;16.88;46.71
76815;BME280;65768;49.906;19.384;2023-05-10T07:48:17;98349.84;;;16.98;45.89
76815;BME280;65768;49.906;19.384;2023-05-10T07:50:45;98350.34;;;16.84;45.30
76815;BME280;65768;49.906;19.384;2023-05-10T07:53:13;98350.78;;;17.04;46.34
76815;BME280;65768;49.906;19.384;2023-05-10T07:55:41;98347.64;;;17.17;46.76
76815;BME280;65768;49.906;19.384;2023-05-10T07:58:09;98344.45;;;16.95;43.50
76815;BME280;65768;49.906;19.384;2023-05-10T08:00:38;98342.90;;;16.61;45.35
76815;BME280;65768;49.906;19.384;2023-05-10T08:03:08;98343.31;;;16.91;47.64
76815;BME280;65768;49.906;19.384;2023-05-10T08:05:36;98342.48;;;17.04;46.80
76815;BME280;65768;49.906;19.384;2023-05-10T08:08:04;98344.29;;;17.17;47.55
76815;BME280;65768;49.906;19.384;2023-05-10T08:10:32;98342.61;;;17.06;46.60
76815;BME280;65768;49.906;19.384;2023-05-10T08:13:01;98342.33;;;17.03;47.02
76815;BME280;65768;49.906;19.384;2023-05-10T08:15:29;98338.80;;;16.96;45.24
76815;BME280;65768;49.906;19.384;2023-05-10T08:17:57;98341.90;;;16.92;45.85
76815;BME280;65768;49.906;19.384;2023-05-10T08:20:26;98344.42;;;16.80;46.57
76815;BME280;65768;49.906;19.384;2023-05-10T08:22:54;98345.93;;;17.22;45.11
76815;BME280;65768;49.906;19.384;2023-05-10T08:25:23;98343.48;;;17.43;44.22
76815;BME280;65768;49.906;19.384;2023-05-10T08:27:52;98342.59;;;17.50;43.39
76815;BME280;65768;49.906;19.384;2023-05-10T08:30:20;98334.02;;;17.48;41.49
76815;BME280;65768;49.906;19.384;2023-05-10T08:32:48;98332.17;;;17.15;41.02
76815;BME280;65768;49.906;19.384;2023-05-10T08:35:16;98333.71;;;17.45;44.08
76815;BME280;65768;49.906;19.384;2023-05-10T08:37:44;98332.67;;;17.51;42.61
76815;BME280;65768;49.906;19.384;2023-05-10T08:40:14;98330.48;;;17.41;41.64
76815;BME280;65768;49.906;19.384;2023-05-10T08:42:47;98335.89;;;17.57;43.13
76815;BME280;65768;49.906;19.384;2023-05-10T08:45:19;98329.17;;;17.92;43.17
76815;BME280;65768;49.906;19.384;2023-05-10T08:47:47;98328.41;;;17.73;42.23
76815;BME280;65768;49.906;19.384;2023-05-10T08:50:17;98329.80;;;17.82;43.73
76815;BME280;65768;49.906;19.384;2023-05-10T08:52:48;98327.44;;;17.97;44.44
76815;BME280;65768;49.906;19.384;2023-05-10T08:55:19;98327.58;;;17.86;42.10
76815;BME280;65768;49.906;19.384;2023-05-10T08:57:48;98329.03;;;17.84;42.63
76815;BME280;65768;49.906;19.384;2023-05-10T09:00:17;98327.84;;;17.48;43.55
76815;BME280;65768;49.906;19.384;2023-05-10T09:02:46;98329.77;;;17.69;44.23
76815;BME280;65768;49.906;19.384;2023-05-10T09:05:15;98326.05;;;17.76;42.63
76815;BME280;65768;49.906;19.384;2023-05-10T09:07:45;98325.39;;;17.82;42.50
76815;BME280;65768;49.906;19.384;2023-05-10T09:10:14;98316.41;;;17.40;41.42
76815;BME280;65768;49.906;19.384;2023-05-10T09:12:44;98321.60;;;17.23;41.49
76815;BME280;65768;49.906;19.384;2023-05-10T09:15:15;98315.95;;;17.30;41.20
76815;BME280;65768;49.906;19.384;2023-05-10T09:17:45;98314.91;;;17.43;40.30
76815;BME280;65768;49.906;19.384;2023-05-10T09:20:14;98312.95;;;17.85;40.38
76815;BME280;65768;49.906;19.384;2023-05-10T09:22:42;98315.50;;;18.32;40.76
76815;BME280;65768;49.906;19.384;2023-05-10T09:25:13;98306.96;;;18.29;39.95
76815;BME280;65768;49.906;19.384;2023-05-10T09:27:44;98309.14;;;18.63;41.02
76815;BME280;65768;49.906;19.384;2023-05-10T09:30:18;98310.38;;;18.74;39.98
76815;BME280;65768;49.906;19.384;2023-05-10T09:32:51;98309.33;;;18.80;39.74
76815;BME280;65768;49.906;19.384;2023-05-10T09:35:21;98307.11;;;18.78;38.27
76815;BME280;65768;49.906;19.384;2023-05-10T09:37:52;98307.48;;;18.88;37.24
76815;BME280;65768;49.906;19.384;2023-05-10T09:40:24;98306.95;;;19.21;37.50
76815;BME280;65768;49.906;19.384;2023-05-10T09:43:05;98305.21;;;19.36;36.16
76815;BME280;65768;49.906;19.384;2023-05-10T09:45:35;98303.20;;;19.28;37.60
76815;BME280;65768;49.906;19.384;2023-05-10T09:48:04;98305.64;;;19.34;37.00
76815;BME280;65768;49.906;19.384;2023-05-10T09:50:32;98304.61;;;19.79;37.75
76815;BME280;65768;49.906;19.384;2023-05-10T09:53:02;98309.38;;;20.34;36.32
76815;BME280;65768;49.906;19.384;2023-05-10T09:55:42;98304.27;;;20.71;34.27
76815;BME280;65768;49.906;19.384;2023-05-10T09:58:14;98300.20;;;20.42;33.06
76815;BME280;65768;49.906;19.384;2023-05-10T10:00:44;98299.91;;;20.82;34.90
76815;BME280;65768;49.906;19.384;2023-05-10T10:03:14;98292.89;;;21.07;33.83
76815;BME280;65768;49.906;19.384;2023-05-10T10:05:43;98288.96;;;20.15;32.78
76815;BME280;65768;49.906;19.384;2023-05-10T10:08:13;98285.53;;;19.11;33.39
76815;BME280;65768;49.906;19.384;2023-05-10T10:10:41;98296.34;;;19.10;35.17
76815;BME280;65768;49.906;19.384;2023-05-10T10:13:12;98294.33;;;19.02;35.09
76815;BME280;65768;49.906;19.384;2023-05-10T10:15:41;98288.51;;;19.23;35.23
76815;BME280;65768;49.906;19.384;2023-05-10T10:18:14;98287.94;;;19.77;35.66
76815;BME280;65768;49.906;19.384;2023-05-10T10:20:43;98283.00;;;19.50;35.73
76815;BME280;65768;49.906;19.384;2023-05-10T10:23:11;98284.95;;;19.90;35.91
76815;BME280;65768;49.906;19.384;2023-05-10T10:25:39;98275.38;;;19.56;35.13
76815;BME280;65768;49.906;19.384;2023-05-10T10:31:27;98271.73;;;19.94;36.23
76815;BME280;65768;49.906;19.384;2023-05-10T10:34:09;98255.58;;;19.24;34.78
76815;BME280;65768;49.906;19.384;2023-05-10T10:36:46;98262.40;;;18.84;34.86
76815;BME280;65768;49.906;19.384;2023-05-10T10:39:15;98272.51;;;19.52;34.96
76815;BME280;65768;49.906;19.384;2023-05-10T10:41:50;98268.81;;;20.06;36.46
76815;BME280;65768;49.906;19.384;2023-05-10T10:44:23;98263.18;;;20.57;36.04
76815;BME280;65768;49.906;19.384;2023-05-10T10:52:34;98255.75;;;21.10;32.32
76815;BME280;65768;49.906;19.384;2023-05-10T10:57:46;98261.03;;;21.02;32.20
76815;BME280;65768;49.906;19.384;2023-05-10T11:00:23;98257.91;;;21.26;32.26
76815;BME280;65768;49.906;19.384;2023-05-10T11:02:56;98258.27;;;21.34;32.03
76815;BME280;65768;49.906;19.384;2023-05-10T11:05:25;98255.73;;;21.01;32.53
76815;BME280;65768;49.906;19.384;2023-05-10T11:07:55;98255.24;;;20.14;32.62
76815;BME280;65768;49.906;19.384;2023-05-10T11:10:25;98262.97;;;20.11;34.52
76815;BME280;65768;49.906;19.384;2023-05-10T11:13:08;98258.77;;;19.95;33.62
76815;BME280;65768;49.906;19.384;2023-05-10T11:15:39;98251.37;;;19.28;33.33
76815;BME280;65768;49.906;19.384;2023-05-10T11:18:20;98254.30;;;19.05;34.13
76815;BME280;65768;49.906;19.384;2023-05-10T11:20:56;98253.98;;;19.25;34.74
76815;BME280;65768;49.906;19.384;2023-05-10T11:23:29;98254.17;;;19.24;33.42
76815;BME280;65768;49.906;19.384;2023-05-10T11:25:59;98253.45;;;18.88;34.31
76815;BME280;65768;49.906;19.384;2023-05-10T11:28:29;98249.25;;;18.97;34.54
76815;BME280;65768;49.906;19.384;2023-05-10T11:30:57;98251.17;;;19.08;35.22
76815;BME280;65768;49.906;19.384;2023-05-10T11:33:25;98240.58;;;19.02;34.88
76815;BME280;65768;49.906;19.384;2023-05-10T11:35:53;98244.31;;;19.54;36.58
76815;BME280;65768;49.906;19.384;2023-05-10T11:38:21;98243.34;;;20.24;34.15
76815;BME280;65768;49.906;19.384;2023-05-10T11:40:51;98237.02;;;21.20;32.46
76815;BME280;65768;49.906;19.384;2023-05-10T11:43:23;98235.84;;;20.98;31.47
76815;BME280;65768;49.906;19.384;2023-05-10T11:45:56;98235.02;;;20.71;31.82
76815;BME280;65768;49.906;19.384;2023-05-10T11:48:24;98231.06;;;21.36;32.79
76815;BME280;65768;49.906;19.384;2023-05-10T11:50:52;98228.98;;;22.11;32.97
76815;BME280;65768;49.906;19.384;2023-05-10T11:53:29;98231.32;;;21.67;30.59
76815;BME280;65768;49.906;19.384;2023-05-10T11:56:05;98238.72;;;21.22;32.89
76815;BME280;65768;49.906;19.384;2023-05-10T11:58:37;98239.17;;;21.11;32.17
76815;BME280;65768;49.906;19.384;2023-05-10T12:01:07;98233.98;;;20.91;32.40
76815;BME280;65768;49.906;19.384;2023-05-10T12:03:37;98229.15;;;20.29;32.77
76815;BME280;65768;49.906;19.384;2023-05-10T12:06:07;98231.71;;;19.85;33.30
76815;BME280;65768;49.906;19.384;2023-05-10T12:08:35;98233.44;;;19.81;33.58
76815;BME280;65768;49.906;19.384;2023-05-10T12:11:07;98233.79;;;20.01;33.15
76815;BME280;65768;49.906;19.384;2023-05-10T12:13:40;98231.02;;;19.81;33.41
76815;BME280;65768;49.906;19.384;2023-05-10T12:16:19;98230.11;;;19.60;32.93
76815;BME280;65768;49.906;19.384;2023-05-10T12:18:52;98228.86;;;19.66;34.28
76815;BME280;65768;49.906;19.384;2023-05-10T12:21:21;98230.23;;;20.29;36.18
76815;BME280;65768;49.906;19.384;2023-05-10T12:23:54;98229.79;;;20.81;34.18
76815;BME280;65768;49.906;19.384;2023-05-10T12:26:24;98222.91;;;20.63;32.16
76815;BME280;65768;49.906;19.384;2023-05-10T12:28:54;98226.33;;;21.09;32.61
76815;BME280;65768;49.906;19.384;2023-05-10T12:31:22;98218.55;;;21.26;31.87
76815;BME280;65768;49.906;19.384;2023-05-10T12:33:51;98217.69;;;20.37;31.32
76815;BME280;65768;49.906;19.384;2023-05-10T12:36:23;98216.42;;;20.06;34.16
76815;BME280;65768;49.906;19.384;2023-05-10T12:39:02;98214.82;;;19.68;34.62
76815;BME280;65768;49.906;19.384;2023-05-10T12:41:31;98218.52;;;19.92;34.95
76815;BME280;65768;49.906;19.384;2023-05-10T12:44:01;98217.90;;;20.90;34.88
76815;BME280;65768;49.906;19.384;2023-05-10T12:46:29;98208.20;;;21.60;33.55
76815;BME280;65768;49.906;19.384;2023-05-10T12:48:58;98204.82;;;22.42;32.09
76815;BME280;65768;49.906;19.384;2023-05-10T12:51:27;98204.04;;;22.73;30.95
76815;BME280;65768;49.906;19.384;2023-05-10T12:53:55;98202.58;;;21.70;29.97
76815;BME280;65768;49.906;19.384;2023-05-10T12:56:23;98203.14;;;21.21;30.45
76815;BME280;65768;49.906;19.384;2023-05-10T12:58:51;98202.38;;;20.88;31.37
76815;BME280;65768;49.906;19.384;2023-05-10T13:01:19;98206.60;;;20.81;32.35
76815;BME280;65768;49.906;19.384;2023-05-10T13:03:47;98206.27;;;21.06;32.86
76815;BME280;65768;49.906;19.384;2023-05-10T13:06:16;98207.29;;;21.28;33.06
76815;BME280;65768;49.906;19.384;2023-05-10T13:08:44;98202.77;;;21.42;32.71
76815;BME280;65768;49.906;19.384;2023-05-10T13:11:12;98200.19;;;21.40;33.30
76815;BME280;65768;49.906;19.384;2023-05-10T13:13:44;98198.50;;;21.26;31.29
76815;BME280;65768;49.906;19.384;2023-05-10T13:16:12;98199.01;;;20.97;32.58
76815;BME280;65768;49.906;19.384;2023-05-10T13:18:40;98202.57;;;21.26;33.03
76815;BME280;65768;49.906;19.384;2023-05-10T13:21:08;98198.98;;;21.40;32.65
76815;BME280;65768;49.906;19.384;2023-05-10T13:23:36;98194.83;;;21.62;32.60
76815;BME280;65768;49.906;19.384;2023-05-10T13:26:04;98190.88;;;21.43;31.70
76815;BME280;65768;49.906;19.384;2023-05-10T13:28:32;98188.09;;;20.99;31.18
76815;BME280;65768;49.906;19.384;2023-05-10T13:31:01;98184.92;;;20.47;30.96
76815;BME280;65768;49.906;19.384;2023-05-10T13:33:29;98186.13;;;20.39;32.60
76815;BME280;65768;49.906;19.384;2023-05-10T13:35:57;98179.23;;;20.11;32.13
76815;BME280;65768;49.906;19.384;2023-05-10T13:38:25;98177.47;;;20.15;32.44
76815;BME280;65768;49.906;19.384;2023-05-10T13:40:53;98175.83;;;20.67;31.21
76815;BME280;65768;49.906;19.384;2023-05-10T13:43:22;98173.74;;;21.57;31.22
76815;BME280;65768;49.906;19.384;2023-05-10T13:45:51;98168.65;;;21.23;30.85
76815;BME280;65768;49.906;19.384;2023-05-10T13:48:19;98168.31;;;20.37;31.43
76815;BME280;65768;49.906;19.384;2023-05-10T13:50:48;98170.56;;;20.07;33.74
76815;BME280;65768;49.906;19.384;2023-05-10T13:53:17;98167.60;;;20.14;33.52
76815;BME280;65768;49.906;19.384;2023-05-10T13:55:45;98166.94;;;20.09;33.18
76815;BME280;65768;49.906;19.384;2023-05-10T13:58:14;98161.23;;;20.06;32.05
76815;BME280;65768;49.906;19.384;2023-05-10T14:00:42;98166.89;;;20.24;34.19
76815;BME280;65768;49.906;19.384;2023-05-10T14:03:10;98152.89;;;20.33;34.45
76815;BME280;65768;49.906;19.384;2023-05-10T14:05:38;98161.27;;;20.27;31.42
76815;BME280;65768;49.906;19.384;2023-05-10T14:08:07;98162.59;;;20.16;32.03
76815;BME280;65768;49.906;19.384;2023-05-10T14:10:37;98157.30;;;20.06;32.52
76815;BME280;65768;49.906;19.384;2023-05-10T14:13:05;98154.23;;;20.03;33.85
76815;BME280;65768;49.906;19.384;2023-05-10T14:15:34;98157.87;;;20.37;33.91
76815;BME280;65768;49.906;19.384;2023-05-10T14:18:02;98154.29;;;20.64;32.14
76815;BME280;65768;49.906;19.384;2023-05-10T14:20:30;98155.78;;;20.97;31.59
76815;BME280;65768;49.906;19.384;2023-05-10T14:23:00;98149.04;;;22.70;29.83
76815;BME280;65768;49.906;19.384;2023-05-10T14:25:28;98142.02;;;26.92;24.84
76815;BME280;65768;49.906;19.384;2023-05-10T14:27:57;98132.48;;;30.47;20.19
76815;BME280;65768;49.906;19.384;2023-05-10T14:30:24;98136.24;;;31.21;18.98
76815;BME280;65768;49.906;19.384;2023-05-10T14:32:53;98132.13;;;30.32;18.66
76815;BME280;65768;49.906;19.384;2023-05-10T14:35:21;98135.14;;;29.53;19.57
76815;BME280;65768;49.906;19.384;2023-05-10T14:37:49;98136.14;;;27.51;21.26
76815;BME280;65768;49.906;19.384;2023-05-10T14:40:18;98136.45;;;28.73;21.89
76815;BME280;65768;49.906;19.384;2023-05-10T14:42:46;98139.17;;;27.87;22.38
76815;BME280;65768;49.906;19.384;2023-05-10T14:45:14;98133.90;;;29.31;21.29
76815;BME280;65768;49.906;19.384;2023-05-10T14:47:42;98132.16;;;32.53;17.77
76815;BME280;65768;49.906;19.384;2023-05-10T14:50:10;98127.70;;;34.70;16.17
76815;BME280;65768;49.906;19.384;2023-05-10T14:52:39;98125.54;;;36.32;15.33
76815;BME280;65768;49.906;19.384;2023-05-10T14:55:07;98127.20;;;36.59;13.45
76815;BME280;65768;49.906;19.384;2023-05-10T14:57:35;98127.50;;;36.40;13.72
76815;BME280;65768;49.906;19.384;2023-05-10T15:00:04;98129.79;;;37.61;14.97
76815;BME280;65768;49.906;19.384;2023-05-10T15:02:33;98129.90;;;38.94;12.84
76815;BME280;65768;49.906;19.384;2023-05-10T15:05:01;98132.26;;;34.85;15.00
76815;BME280;65768;49.906;19.384;2023-05-10T15:07:29;98128.73;;;34.24;16.30
76815;BME280;65768;49.906;19.384;2023-05-10T15:09:59;98130.25;;;30.60;19.50
76815;BME280;65768;49.906;19.384;2023-05-10T15:12:28;98133.20;;;30.86;19.17
76815;BME280;65768;49.906;19.384;2023-05-10T15:14:56;98133.98;;;28.15;21.67
76815;BME280;65768;49.906;19.384;2023-05-10T15:17:24;98134.52;;;27.03;22.70
76815;BME280;65768;49.906;19.384;2023-05-10T15:19:52;98132.98;;;26.34;24.29
76815;BME280;65768;49.906;19.384;2023-05-10T15:22:21;98131.84;;;25.87;25.10
76815;BME280;65768;49.906;19.384;2023-05-10T15:24:49;98131.04;;;25.69;24.78
76815;BME280;65768;49.906;19.384;2023-05-10T15:27:17;98131.98;;;24.62;25.42
76815;BME280;65768;49.906;19.384;2023-05-10T15:29:49;98133.36;;;23.78;27.64
76815;BME280;65768;49.906;19.384;2023-05-10T15:32:17;98132.44;;;23.18;27.68
76815;BME280;65768;49.906;19.384;2023-05-10T15:34:45;98134.23;;;22.43;28.82
76815;BME280;65768;49.906;19.384;2023-05-10T15:37:14;98140.71;;;21.42;29.10
76815;BME280;65768;49.906;19.384;2023-05-10T15:39:42;98143.92;;;20.80;30.73
76815;BME280;65768;49.906;19.384;2023-05-10T15:42:10;98145.03;;;20.39;31.87
76815;BME280;65768;49.906;19.384;2023-05-10T15:44:38;98138.29;;;20.52;32.47
76815;BME280;65768;49.906;19.384;2023-05-10T15:47:06;98138.59;;;24.16;27.81
76815;BME280;65768;49.906;19.384;2023-05-10T15:49:34;98137.69;;;23.09;29.03
76815;BME280;65768;49.906;19.384;2023-05-10T15:52:02;98132.80;;;21.91;30.74
76815;BME280;65768;49.906;19.384;2023-05-10T15:54:30;98142.09;;;21.35;32.42
76815;BME280;65768;49.906;19.384;2023-05-10T15:56:58;98150.48;;;20.88;32.73
76815;BME280;65768;49.906;19.384;2023-05-10T15:59:27;98147.02;;;20.51;33.84
76815;BME280;65768;49.906;19.384;2023-05-10T16:01:56;98146.93;;;20.18;33.85
76815;BME280;65768;49.906;19.384;2023-05-10T16:04:24;98146.10;;;20.03;34.02
76815;BME280;65768;49.906;19.384;2023-05-10T16:06:52;98148.83;;;19.87;34.71
76815;BME280;65768;49.906;19.384;2023-05-10T16:09:21;98144.75;;;19.69;34.79
76815;BME280;65768;49.906;19.384;2023-05-10T16:11:52;98145.88;;;19.79;33.89
76815;BME280;65768;49.906;19.384;2023-05-10T16:14:20;98131.61;;;22.16;30.23
76815;BME280;65768;49.906;19.384;2023-05-10T16:16:50;98146.30;;;20.51;33.18
76815;BME280;65768;49.906;19.384;2023-05-10T16:19:18;98149.70;;;19.83;34.03
76815;BME280;65768;49.906;19.384;2023-05-10T16:21:46;98151.22;;;19.16;35.52
76815;BME280;65768;49.906;19.384;2023-05-10T16:24:14;98153.27;;;18.93;36.29
76815;BME280;65768;49.906;19.384;2023-05-10T16:26:42;98153.98;;;18.78;36.41
76815;BME280;65768;49.906;19.384;2023-05-10T16:29:11;98154.79;;;18.52;37.43
76815;BME280;65768;49.906;19.384;2023-05-10T16:31:39;98153.06;;;18.35;37.38
76815;BME280;65768;49.906;19.384;2023-05-10T16:34:07;98154.20;;;18.26;38.61
76815;BME280;65768;49.906;19.384;2023-05-10T16:36:35;98154.88;;;18.22;39.45
76815;BME280;65768;49.906;19.384;2023-05-10T16:39:04;98156.27;;;18.11;40.19
76815;BME280;65768;49.906;19.384;2023-05-10T16:41:33;98157.06;;;17.97;40.15
76815;BME280;65768;49.906;19.384;2023-05-10T16:44:01;98151.66;;;17.89;39.83
76815;BME280;65768;49.906;19.384;2023-05-10T16:46:30;98158.38;;;17.83;39.76
76815;BME280;65768;49.906;19.384;2023-05-10T16:49:00;98156.45;;;17.75;39.09
76815;BME280;65768;49.906;19.384;2023-05-10T16:51:28;98158.24;;;17.68;40.31
76815;BME280;65768;49.906;19.384;2023-05-10T16:53:56;98162.43;;;17.57;39.87
76815;BME280;65768;49.906;19.384;2023-05-10T16:56:24;98163.98;;;17.51;40.29
76815;BME280;65768;49.906;19.384;2023-05-10T16:58:53;98164.73;;;17.44;40.76
76815;BME280;65768;49.906;19.384;2023-05-10T17:01:22;98168.14;;;17.29;40.18
76815;BME280;65768;49.906;19.384;2023-05-10T17:03:50;98170.37;;;17.19;40.50
76815;BME280;65768;49.906;19.384;2023-05-10T17:06:18;98174.09;;;17.04;40.70
76815;BME280;65768;49.906;19.384;2023-05-10T17:08:47;98170.83;;;16.88;41.32
76815;BME280;65768;49.906;19.384;2023-05-10T17:11:19;98172.18;;;16.76;41.68
76815;BME280;65768;49.906;19.384;2023-05-10T17:13:48;98171.64;;;16.61;41.93
76815;BME280;65768;49.906;19.384;2023-05-10T17:16:18;98176.56;;;16.55;42.79
76815;BME280;65768;49.906;19.384;2023-05-10T17:18:48;98178.73;;;16.45;43.33
76815;BME280;65768;49.906;19.384;2023-05-10T17:21:17;98182.34;;;16.33;43.50
76815;BME280;65768;49.906;19.384;2023-05-10T17:23:46;98181.02;;;16.21;43.59
76815;BME280;65768;49.906;19.384;2023-05-10T17:26:15;98182.75;;;16.07;45.08
76815;BME280;65768;49.906;19.384;2023-05-10T17:28:44;98189.38;;;15.86;45.62
76815;BME280;65768;49.906;19.384;2023-05-10T17:31:12;98189.96;;;15.65;46.01
76815;BME280;65768;49.906;19.384;2023-05-10T17:33:41;98189.60;;;15.48;46.56
76815;BME280;65768;49.906;19.384;2023-05-10T17:36:09;98190.24;;;15.32;47.10
76815;BME280;65768;49.906;19.384;2023-05-10T17:38:38;98192.37;;;15.22;47.38
76815;BME280;65768;49.906;19.384;2023-05-10T17:41:06;98195.31;;;15.05;47.34
76815;BME280;65768;49.906;19.384;2023-05-10T17:43:38;98198.40;;;14.90;48.26
76815;BME280;65768;49.906;19.384;2023-05-10T17:46:06;98201.02;;;14.70;48.91
76815;BME280;65768;49.906;19.384;2023-05-10T17:48:40;98199.52;;;14.53;49.51
76815;BME280;65768;49.906;19.384;2023-05-10T17:51:13;98205.53;;;14.37;49.57
76815;BME280;65768;49.906;19.384;2023-05-10T17:53:45;98205.34;;;14.26;49.35
76815;BME280;65768;49.906;19.384;2023-05-10T17:56:14;98208.13;;;14.16;49.26
76815;BME280;65768;49.906;19.384;2023-05-10T17:58:42;98207.43;;;14.02;50.11